Thunder radar more information blitzortung!


Radar de pluja more information rain snow radar


Visita la nostra xarxa de llocs de meteo:

Template documentation
and downloads

And another site



No particular awareness of the weather is required.    There are no Weather-warnings

Pagina Historial Weather Underground text

Diari Resum January 7, 2018 Unitats:  Mètric    Imperial   Tant
« Previous Dia
SegĂźent Dia »
Diari Setmana Mensual Anual Personalitzada
  Maxima: Minima: Media:
Temperatura: -17.8 °C -16.3 °C -13.5 °C
Punt de rosada: -17.8 °C -17.7 °C -14.9 °C
Humitat: Humidity % 79 % 83 %
Wind Speed: 0 km/h 0 km/h 6.4 km/h
RĂ fegues de vent: 0 km/h - -
Vent:- - SE
Pression baro: 0 hPa 33788.9 hPa -
Precipitacions: 187.96 mm    
Historical Graphs
 
 
Dades de taula per January 7, 2018
Temps Temperatura Punt de rosada Pression baro Vent Wind Speed RĂ fegues de vent Humitat Rainfall Rate (Hourly)
-17.8 °C -17.8 °C 0 hPa Calm     Humidity % 0 mm
00:00 -10.7 °C -12.2 °C 33822.8 hPa ENE 9 km/h 9 km/h 84 % 104.14 mm
00:05 -10.8 °C -12.1 °C 33822.8 hPa NE 5.1 km/h 10.3 km/h 85 % 0 mm
00:08 -10.8 °C -12.3 °C 33788.9 hPa ESE 8.5 km/h 8.5 km/h 84 % 104.14 mm
00:25 -11.6 °C -13.4 °C 33856.6 hPa NE 5.1 km/h 7.7 km/h 80 % 0 mm
00:45 -11.6 °C -13.5 °C 33856.6 hPa East 2.6 km/h 5.1 km/h 79 % 0 mm
00:55 -11.6 °C -13.6 °C 33856.6 hPa NE 7.7 km/h 7.7 km/h 79 % 0 mm
01:05 -11.7 °C -13.6 °C 33856.6 hPa NNE 2.6 km/h 7.7 km/h 79 % 0 mm
01:25 -11.7 °C -13.5 °C 33856.6 hPa Calm   2.6 km/h 80 % 0 mm
01:45 -11.6 °C -13.4 °C 33856.6 hPa NNE 2.6 km/h 2.6 km/h 80 % 0 mm
01:55 -11.7 °C -13.6 °C 33856.6 hPa North 2.6 km/h 5.1 km/h 79 % 0 mm
02:35 -11.7 °C -13.5 °C 33890.5 hPa NE 5.1 km/h 10.3 km/h 80 % 0 mm
02:45 -11.6 °C -13.4 °C 33890.5 hPa NE 5.1 km/h 7.7 km/h 80 % 0 mm
03:15 -12.2 °C -14.1 °C 33890.5 hPa SSE 7.7 km/h 12.9 km/h 80 % 0 mm
03:25 -12.5 °C -14.4 °C 33924.3 hPa SSW 5.1 km/h 12.9 km/h 79 % 33.02 mm
03:45 -12.7 °C -14.5 °C 33924.3 hPa SSW 7.7 km/h 33.6 km/h 80 % 0 mm
10:01 -12.7 °C -14.6 °C 33924.3 hPa ESE 9 km/h 9 km/h 80 % 33.02 mm
10:07 -12.8 °C -14.6 °C 33958.2 hPa NE 11.9 km/h 11.9 km/h 80 % 33.02 mm
10:12 -12.8 °C -14.6 °C 33958.2 hPa NNE 9 km/h 9 km/h 80 % 33.02 mm
10:17 -12.8 °C -14.5 °C 33958.2 hPa NNE 7.6 km/h 7.6 km/h 81 % 33.02 mm
10:20 -12.8 °C -14.5 °C 33958.2 hPa NE 9 km/h 9 km/h 81 % 33.02 mm
10:24 -12.8 °C -14.5 °C 33992.1 hPa ENE 9 km/h 9 km/h 81 % 58.42 mm
10:29 -12.8 °C -14.4 °C 33992.1 hPa NE 9 km/h 9 km/h 82 % 58.42 mm
10:34 -12.8 °C -14.4 °C 33992.1 hPa NE 9 km/h 9 km/h 82 % 58.42 mm
10:37 -12.8 °C -14.4 °C 33958.2 hPa NNE 9 km/h 9 km/h 82 % 58.42 mm
10:42 -12.8 °C -14.3 °C 33958.2 hPa NNE 6 km/h 6 km/h 83 % 58.42 mm
10:47 -12.8 °C -14.3 °C 33958.2 hPa NNE 9 km/h 9 km/h 83 % 25.4 mm
10:48 -12.8 °C -14.3 °C 33958.2 hPa NNE 9 km/h 9 km/h 83 % 25.4 mm
10:53 -12.8 °C -14.3 °C 33992.1 hPa NNE 6 km/h 6 km/h 83 % 25.4 mm
10:54 -12.8 °C -14.3 °C 33992.1 hPa NNE 6.8 km/h 6.8 km/h 83 % 25.4 mm
10:59 -12.8 °C -14.2 °C 33992.1 hPa NNE 9 km/h 9 km/h 84 % 25.4 mm
11:01 -12.8 °C -14.2 °C 33992.1 hPa NNE 7.6 km/h 7.6 km/h 84 % 25.4 mm
11:02 -12.8 °C -14.2 °C 33992.1 hPa NNE 6 km/h 6 km/h 84 % 25.4 mm
11:08 -12.8 °C -14.2 °C 33992.1 hPa North 6 km/h 6 km/h 84 % 25.4 mm
11:10 -12.8 °C -14.2 °C 33992.1 hPa NNE 6 km/h 6 km/h 84 % 25.4 mm
11:15 -12.8 °C -14.2 °C 33992.1 hPa NNE 9.3 km/h 9.3 km/h 84 % 25.4 mm
11:16 -12.8 °C -14.2 °C 33992.1 hPa ENE 11.1 km/h 11.1 km/h 84 % 25.4 mm
11:18 -12.8 °C -14.2 °C 33992.1 hPa NNE 11.9 km/h 11.9 km/h 84 % 25.4 mm
11:23 -12.8 °C -14.2 °C 33992.1 hPa NNE 15 km/h 15 km/h 84 % 0 mm
11:28 -12.8 °C -14.2 °C 33992.1 hPa NNE 11.9 km/h 12.2 km/h 84 % 0 mm
11:29 -12.8 °C -14.2 °C 33992.1 hPa ENE 11.9 km/h 11.9 km/h 84 % 0 mm
11:31 -12.8 °C -14.2 °C 33992.1 hPa NNE 9.3 km/h 9.3 km/h 84 % 25.4 mm
11:34 -12.8 °C -14.2 °C 33992.1 hPa NNE 11.9 km/h 11.9 km/h 85 % 25.4 mm
11:39 -12.8 °C -14.3 °C 33992.1 hPa NNE 9 km/h 9 km/h 84 % 25.4 mm
11:43 -12.9 °C -14.2 °C 33992.1 hPa ENE 6 km/h 6 km/h 85 % 25.4 mm
11:48 -12.9 °C -14.2 °C 33992.1 hPa ENE 6.3 km/h 6.3 km/h 85 % 25.4 mm
11:50 -12.9 °C -14.2 °C 34029.3 hPa NNE 9 km/h 9 km/h 85 % 25.4 mm
11:54 -12.9 °C -14.3 °C 34029.3 hPa NNE 9 km/h 9 km/h 85 % 25.4 mm
11:59 -12.9 °C -14.3 °C 34029.3 hPa NNE 9 km/h 9 km/h 85 % 25.4 mm
12:00 -12.9 °C -14.3 °C 34029.3 hPa NNE 6 km/h 6 km/h 85 % 25.4 mm
12:05 -12.9 °C -14.3 °C 34029.3 hPa NNE 9 km/h 9 km/h 85 % 25.4 mm
12:10 -12.9 °C -14.3 °C 34029.3 hPa ENE 9 km/h 9 km/h 85 % 50.8 mm
12:12 -12.9 °C -14.3 °C 34029.3 hPa ENE 11.9 km/h 11.9 km/h 85 % 50.8 mm
12:15 -13 °C -14.3 °C 34029.3 hPa ENE 11.9 km/h 11.9 km/h 85 % 50.8 mm
12:19 -13 °C -14.3 °C 34029.3 hPa NE 11.9 km/h 11.9 km/h 85 % 50.8 mm
12:24 -12.9 °C -14.3 °C 34029.3 hPa East 11.9 km/h 11.9 km/h 85 % 50.8 mm
12:25 -12.9 °C -14.3 °C 34029.3 hPa NE 6 km/h 6 km/h 85 % 50.8 mm
12:30 -12.9 °C -14.3 °C 34029.3 hPa ENE 6.8 km/h 6.8 km/h 85 % 50.8 mm
12:32 -12.9 °C -14.3 °C 34029.3 hPa NNE 9.8 km/h 9.8 km/h 85 % 25.4 mm
12:37 -12.9 °C -14.3 °C 33992.1 hPa ENE 15 km/h 15 km/h 85 % 25.4 mm
12:38 -12.9 °C -14.3 °C 33992.1 hPa NNE 17.9 km/h 17.9 km/h 85 % 25.4 mm
12:43 -12.9 °C -14.3 °C 33992.1 hPa NNE 6 km/h 6 km/h 85 % 25.4 mm
12:44 -12.9 °C -14.3 °C 33992.1 hPa WNW 6 km/h   85 % 25.4 mm
12:49 -12.9 °C -14.1 °C 33992.1 hPa Calm     86 % 50.8 mm
12:50 -12.9 °C -14.1 °C 33992.1 hPa Calm     86 % 50.8 mm
12:55 -12.9 °C -14.1 °C 34029.3 hPa NE 3.1 km/h 3.1 km/h 86 % 50.8 mm
12:57 -12.9 °C -14.1 °C 34029.3 hPa NE 3.1 km/h   86 % 50.8 mm
13:00 -12.9 °C -14.1 °C 34029.3 hPa NNW 6 km/h 6 km/h 86 % 50.8 mm
13:03 -12.9 °C -14.1 °C 34029.3 hPa NNE 9 km/h 9 km/h 86 % 50.8 mm
13:08 -12.9 °C -14.1 °C 33992.1 hPa ENE 10.3 km/h 10.3 km/h 86 % 50.8 mm
13:11 -12.9 °C -14.1 °C 33992.1 hPa NNE 15 km/h 15 km/h 86 % 25.4 mm
13:16 -12.9 °C -14.1 °C 33992.1 hPa ENE 14 km/h 14 km/h 86 % 25.4 mm
13:22 -12.9 °C -14.1 °C 34029.3 hPa NE 15 km/h 15 km/h 86 % 25.4 mm
13:23 -12.9 °C -14.1 °C 34029.3 hPa NNE 11.9 km/h 11.9 km/h 86 % 25.4 mm
13:28 -12.9 °C -14.1 °C 34029.3 hPa NE 11.9 km/h 11.9 km/h 86 % 25.4 mm
13:33 -12.9 °C -14 °C 34029.3 hPa NNE 9.3 km/h 9.3 km/h 87 % 25.4 mm
13:34 -12.9 °C -14 °C 34029.3 hPa NNE 11.9 km/h 11.9 km/h 87 % 25.4 mm
13:39 -12.9 °C -14 °C 33992.1 hPa NNE 11.9 km/h 11.9 km/h 87 % 25.4 mm
13:40 -12.9 °C -14 °C 33992.1 hPa NE 11.9 km/h 11.9 km/h 87 % 25.4 mm
13:41 -12.9 °C -14 °C 33992.1 hPa ENE 9 km/h 9 km/h 87 % 25.4 mm
13:46 -12.9 °C -14 °C 33992.1 hPa NNE 9 km/h 9 km/h 87 % 0 mm
13:51 -12.9 °C -14 °C 33992.1 hPa NNE 11.9 km/h 11.9 km/h 87 % 0 mm
13:55 -12.9 °C -14 °C 33992.1 hPa ENE 11.9 km/h 11.9 km/h 87 % 0 mm
13:57 -12.9 °C -14 °C 33992.1 hPa NNE 11.9 km/h 11.9 km/h 87 % 0 mm
14:02 -12.9 °C -14.2 °C 33992.1 hPa ENE 15 km/h 15 km/h 86 % 0 mm
14:06 -12.9 °C -14.2 °C 33992.1 hPa NNE 11.9 km/h 11.9 km/h 86 % 0 mm
14:11 -13 °C -14.2 °C 33992.1 hPa ENE 9.3 km/h 9.3 km/h 86 % 0 mm
14:13 -13 °C -14.2 °C 33992.1 hPa NNE 9 km/h 9 km/h 86 % 0 mm
14:15 -13 °C -14.2 °C 33992.1 hPa NNE 11.9 km/h 11.9 km/h 86 % 0 mm
14:19 -13 °C -14.2 °C 33992.1 hPa NNE 15 km/h 15 km/h 86 % 0 mm
14:24 -13 °C -14.3 °C 33958.2 hPa ENE 15 km/h 15 km/h 85 % 0 mm
14:27 -13 °C -14.3 °C 33958.2 hPa ENE 20.9 km/h 20.9 km/h 85 % 0 mm
14:32 -13.1 °C -14.4 °C 33958.2 hPa East 9.3 km/h 9.3 km/h 85 % 0 mm
14:34 -13.1 °C -14.4 °C 33958.2 hPa ENE 9 km/h 9 km/h 85 % 0 mm
14:39 -13 °C -14.3 °C 33992.1 hPa ENE 6.3 km/h 6.3 km/h 85 % 0 mm
14:40 -13 °C -14.3 °C 33992.1 hPa ENE 6 km/h 6 km/h 85 % 0 mm
14:45 -13 °C -14.3 °C 33992.1 hPa NNE 9 km/h 9 km/h 85 % 0 mm
14:50 -13 °C -14.3 °C 33992.1 hPa WNW 6 km/h   85 % 0 mm
14:55 -13 °C -14.3 °C 33992.1 hPa Calm     85 % 0 mm
14:56 -13 °C -14.3 °C 33992.1 hPa Calm     85 % 0 mm
14:57 -13 °C -14.3 °C 33992.1 hPa Calm     85 % 0 mm
15:02 -12.9 °C -14.3 °C 33992.1 hPa SW 5.6 km/h 5.6 km/h 85 % 0 mm
15:04 -13 °C -14.3 °C 33992.1 hPa SW 7.6 km/h 7.6 km/h 85 % 0 mm
15:09 -13 °C -14.3 °C 33992.1 hPa SW 6 km/h 6 km/h 85 % 0 mm
15:10 -13 °C -14.3 °C 33992.1 hPa SW 3.1 km/h   85 % 0 mm
15:15 -13 °C -14.2 °C 33992.1 hPa Calm     86 % 0 mm
15:20 -13 °C -14.2 °C 33992.1 hPa SW 6 km/h 6 km/h 86 % 0 mm
15:21 -13 °C -14.2 °C 33992.1 hPa SSW 6 km/h 6 km/h 86 % 0 mm
15:26 -13 °C -14.2 °C 33992.1 hPa SW 3.1 km/h   86 % 0 mm
15:31 -13 °C -14.2 °C 33992.1 hPa South 6 km/h 6 km/h 86 % 0 mm
15:33 -13 °C -14.2 °C 33992.1 hPa Calm     86 % 0 mm
15:37 -13 °C -14.2 °C 33992.1 hPa ENE 4.2 km/h   86 % 0 mm
15:41 -13.1 °C -14.3 °C 33992.1 hPa NNW 3.1 km/h 3.1 km/h 86 % 0 mm
15:48 -13.1 °C -14.3 °C 33992.1 hPa NNE 3.7 km/h 3.7 km/h 86 % 0 mm
15:53 -13.1 °C -14.3 °C 34029.3 hPa NNE 6 km/h 6 km/h 86 % 0 mm
15:55 -13.1 °C -14.3 °C 34029.3 hPa NNE 9 km/h 9 km/h 86 % 0 mm
16:00 -13.1 °C -14.3 °C 34029.3 hPa NNE 5.1 km/h 7.7 km/h 86 % 0 mm
16:05 -13.1 °C -14.3 °C 34029.3 hPa Calm   5.1 km/h 86 % 0 mm
16:07 -13.1 °C -14.3 °C 33992.1 hPa Calm     86 % 0 mm
16:12 -13.1 °C -14.3 °C 33992.1 hPa East 6 km/h 6 km/h 86 % 0 mm
16:15 -13.2 °C -14.4 °C 33992.1 hPa SE 3.1 km/h   86 % 0 mm
16:20 -13.1 °C -14.3 °C 34029.3 hPa WSW 6 km/h   86 % 0 mm
16:30 -13.2 °C -14.5 °C 34029.3 hPa NE 17.9 km/h 17.9 km/h 85 % 0 mm
16:32 -13.3 °C -14.6 °C 34029.3 hPa NNE 20.9 km/h 20.9 km/h 85 % 0 mm
16:37 -13.3 °C -14.8 °C 33992.1 hPa NNE 26.9 km/h 26.9 km/h 83 % 0 mm
16:40 -13.3 °C -14.8 °C 33992.1 hPa WNW 6 km/h 6 km/h 83 % 0 mm
16:45 -13.3 °C -14.8 °C 33992.1 hPa WNW 9 km/h 9 km/h 83 % 0 mm
16:46 -13.3 °C -14.8 °C 33992.1 hPa West 6.3 km/h 6.3 km/h 83 % 0 mm
16:51 -13.2 °C -14.7 °C 33992.1 hPa SW 6 km/h 6 km/h 83 % 0 mm
16:53 -13.2 °C -14.7 °C 33992.1 hPa NW 3.1 km/h   83 % 0 mm
16:58 -13.2 °C -14.7 °C 33992.1 hPa NNE 3.1 km/h 3.1 km/h 83 % 0 mm
17:03 -13.2 °C -14.7 °C 33992.1 hPa ENE 6 km/h 6 km/h 83 % 0 mm
17:08 -13.3 °C -14.9 °C 33992.1 hPa NNE 11.1 km/h 11.1 km/h 82 % 0 mm
17:11 -13.3 °C -14.9 °C 33992.1 hPa NNE 16.1 km/h 16.1 km/h 82 % 0 mm
17:16 -13.3 °C -15.1 °C 33992.1 hPa NNE 15 km/h 15 km/h 81 % 0 mm
17:20 -13.3 °C -15.1 °C 33992.1 hPa NNW 12.7 km/h 12.7 km/h 80 % 0 mm
17:25 -13.3 °C -15.1 °C 33992.1 hPa WNW 6 km/h 6 km/h 80 % 0 mm
17:30 -13.3 °C -15.1 °C 33992.1 hPa WSW 3.1 km/h 3.1 km/h 81 % 0 mm
17:34 -13.3 °C -15.1 °C 33992.1 hPa NE 3.1 km/h   81 % 0 mm
17:38 -13.4 °C -15.1 °C 33992.1 hPa NNE 9 km/h 9 km/h 81 % 0 mm
17:43 -13.3 °C -14.9 °C 33992.1 hPa WSW 6 km/h 6 km/h 82 % 0 mm
17:45 -13.3 °C -14.9 °C 33992.1 hPa SSW 7.6 km/h 7.6 km/h 82 % 0 mm
17:50 -13.3 °C -14.9 °C 33992.1 hPa WNW 3.1 km/h 3.1 km/h 82 % 0 mm
17:55 -13.3 °C -14.9 °C 33992.1 hPa WSW 4.2 km/h 4.2 km/h 82 % 0 mm
17:58 -13.3 °C -14.9 °C 33992.1 hPa ESE 6 km/h 6 km/h 82 % 0 mm
18:03 -13.4 °C -15.1 °C 33992.1 hPa ENE 9 km/h 9 km/h 81 % 0 mm
18:08 -13.4 °C -15.1 °C 34029.3 hPa SW 9 km/h 9 km/h 81 % 0 mm
18:13 -13.4 °C -15.2 °C 34029.3 hPa ENE 15 km/h 15 km/h 80 % 0 mm
18:15 -13.4 °C -15.2 °C 34029.3 hPa West 5.1 km/h 15.6 km/h 80 % 0 mm
18:20 -13.4 °C -15.2 °C 34029.3 hPa West 6 km/h 6 km/h 80 % 0 mm
18:23 -13.4 °C -15.3 °C 34029.3 hPa ENE 9.8 km/h 9.8 km/h 79 % 0 mm
18:25 -15.1 °C -16.5 °C 34097 hPa Calm   2.6 km/h 84 % 0 mm
18:28 -13.4 °C -15.3 °C 34029.3 hPa SSE 6 km/h 6 km/h 79 % 0 mm
18:31 -13.4 °C -15.3 °C 34029.3 hPa SSW 9 km/h 9 km/h 79 % 0 mm
18:35 -15.2 °C -16.6 °C 34097 hPa Calm     84 % 0 mm
18:36 -13.4 °C -15.3 °C 34029.3 hPa SSW 6 km/h 6 km/h 79 % 0 mm
18:40 -13.5 °C -15.4 °C 34029.3 hPa West 5.1 km/h 12.9 km/h 79 % 0 mm
18:45 -13.4 °C -15.3 °C 34029.3 hPa WSW 6 km/h 6 km/h 79 % 0 mm
18:50 -13.6 °C -15.4 °C 34029.3 hPa SSW 3.1 km/h 3.1 km/h 79 % 0 mm
18:57 -13.6 °C -15.3 °C 34029.3 hPa SW 9 km/h 9 km/h 80 % 0 mm
19:02 -13.6 °C -15.4 °C 34029.3 hPa SSW 9.3 km/h 9.3 km/h 80 % 0 mm
19:05 -15.3 °C -16.7 °C 34097 hPa Calm     84 % 0 mm
19:07 -13.6 °C -15.4 °C 34029.3 hPa WSW 9 km/h 9 km/h 80 % 0 mm
19:08 -13.6 °C -15.4 °C 34029.3 hPa West 9 km/h 9 km/h 80 % 0 mm
19:13 -13.7 °C -15.4 °C 34029.3 hPa SW 6 km/h 6 km/h 81 % 0 mm
19:15 -15.3 °C -16.6 °C 34097 hPa Calm   2.6 km/h 85 % 0 mm
19:18 -13.7 °C -15.4 °C 34029.3 hPa WSW 6 km/h 6 km/h 81 % 0 mm
19:20 -13.7 °C -15.4 °C 34029.3 hPa WSW 6 km/h 6 km/h 81 % 0 mm
19:25 -13.7 °C -15.3 °C 34029.3 hPa Calm   2.6 km/h 82 % 0 mm
19:28 -13.7 °C -15.3 °C 34029.3 hPa Calm     82 % 0 mm
19:29 -13.8 °C -15.4 °C 34029.3 hPa Calm     82 % 0 mm
19:34 -13.8 °C -15.4 °C 34029.3 hPa NE 6 km/h 6 km/h 82 % 0 mm
19:35 -15.5 °C -16.8 °C 34097 hPa ENE 2.6 km/h 2.6 km/h 85 % 0 mm
19:39 -13.8 °C -15.3 °C 34029.3 hPa ENE 3.1 km/h 3.1 km/h 83 % 0 mm
19:44 -13.8 °C -15.3 °C 34029.3 hPa ENE 6 km/h   83 % 0 mm
19:45 -15.5 °C -16.8 °C 34097 hPa Calm   5.1 km/h 85 % 0 mm
19:49 -13.9 °C -15.4 °C 34029.3 hPa Calm     83 % 0 mm
19:54 -13.9 °C -15.4 °C 34063.2 hPa South 6 km/h 6 km/h 83 % 0 mm
19:55 -15.5 °C -16.8 °C 34130.9 hPa Calm     85 % 0 mm
19:57 -13.9 °C -15.4 °C 34063.2 hPa SW 3.1 km/h 3.1 km/h 83 % 0 mm
20:02 -14 °C -15.5 °C 34063.2 hPa SW 4.2 km/h   83 % 0 mm
20:07 -14.1 °C -15.6 °C 34063.2 hPa WSW 9 km/h 9 km/h 83 % 0 mm
20:11 -14.1 °C -15.6 °C 34063.2 hPa West 6 km/h 6 km/h 83 % 0 mm
20:15 -15.5 °C -16.8 °C 34130.9 hPa Calm   2.6 km/h 85 % 0 mm
20:16 -14.1 °C -15.6 °C 34063.2 hPa West 6 km/h 6 km/h 83 % 0 mm
20:21 -14.1 °C -15.6 °C 34029.3 hPa SW 6.3 km/h 6.3 km/h 83 % 0 mm
20:22 -14.1 °C -15.6 °C 34029.3 hPa SW 6 km/h 6 km/h 83 % 0 mm
20:25 -15.7 °C -16.9 °C 34130.9 hPa Calm     85 % 0 mm
20:27 -14.2 °C -15.7 °C 34029.3 hPa WSW 6.8 km/h 6.8 km/h 83 % 0 mm
20:32 -14.2 °C -15.7 °C 34029.3 hPa WSW 6.3 km/h 6.3 km/h 83 % 0 mm
20:35 -15.6 °C -16.9 °C 34097 hPa WNW 2.6 km/h 7.7 km/h 84 % 0 mm
20:37 -14.2 °C -15.7 °C 34029.3 hPa WSW 6.3 km/h 6.3 km/h 83 % 0 mm
20:42 -14.2 °C -15.7 °C 34029.3 hPa West 6 km/h 6 km/h 83 % 0 mm
20:47 -14.2 °C -15.7 °C 34029.3 hPa West 6 km/h 6 km/h 83 % 0 mm
20:52 -14.1 °C -15.6 °C 34063.2 hPa SW 8.5 km/h 8.5 km/h 83 % 0 mm
20:55 -15.6 °C -16.9 °C 34130.9 hPa Calm   5.1 km/h 84 % 0 mm
20:57 -14.2 °C -15.7 °C 34063.2 hPa SW 3.1 km/h   83 % 0 mm
21:02 -14.3 °C -15.8 °C 34063.2 hPa Calm     83 % 0 mm
21:07 -14.3 °C -15.8 °C 34063.2 hPa Calm     83 % 0 mm
21:12 -14.4 °C -15.9 °C 34063.2 hPa SSW 6 km/h 6 km/h 83 % 0 mm
21:17 -14.4 °C -15.9 °C 34063.2 hPa WSW 6.3 km/h 6.3 km/h 83 % 0 mm
21:18 -14.4 °C -15.9 °C 34063.2 hPa WSW 6 km/h 6 km/h 83 % 0 mm
21:19 -14.4 °C -15.9 °C 34063.2 hPa WSW 3.1 km/h 3.7 km/h 83 % 0 mm
21:24 -14.4 °C -15.9 °C 34063.2 hPa Calm     83 % 0 mm
21:25 -15.9 °C -17.2 °C 34130.9 hPa Calm   5.1 km/h 85 % 0 mm
21:29 -14.4 °C -15.8 °C 34063.2 hPa West 3.1 km/h 3.1 km/h 84 % 0 mm
21:34 -14.4 °C -15.8 °C 34063.2 hPa West 5.1 km/h   84 % 0 mm
21:35 -15.9 °C -17.2 °C 34130.9 hPa NNE 5.1 km/h 5.1 km/h 85 % 0 mm
21:36 -14.4 °C -15.8 °C 34063.2 hPa WSW 6 km/h 6 km/h 84 % 0 mm
21:41 -14.4 °C -15.8 °C 34063.2 hPa WSW 3.7 km/h 3.7 km/h 84 % 0 mm
21:46 -14.4 °C -15.8 °C 34063.2 hPa SW 5.1 km/h   84 % 0 mm
21:51 -14.5 °C -15.9 °C 34063.2 hPa SW 3.1 km/h   84 % 0 mm
21:55 -15.7 °C -16.9 °C 34130.9 hPa NNE 2.6 km/h 5.1 km/h 86 % 0 mm
21:57 -14.5 °C -16 °C 34063.2 hPa West 6 km/h 6 km/h 83 % 0 mm
22:05 -15.8 °C -17.1 °C 34130.9 hPa NNW 2.6 km/h 2.6 km/h 85 % 0 mm
22:15 -14.5 °C -16 °C 34097 hPa NW 6 km/h 6 km/h 83 % 0 mm
22:20 -14.5 °C -16 °C 34097 hPa NW 6 km/h 6 km/h 83 % 0 mm
22:25 -14.5 °C -16 °C 34097 hPa West 6 km/h 6 km/h 83 % 0 mm
22:30 -14.4 °C -15.9 °C 34097 hPa WSW 6 km/h 6 km/h 83 % 0 mm
22:35 -14.4 °C -15.9 °C 34097 hPa WNW 9 km/h 9 km/h 83 % 0 mm
22:40 -14.4 °C -15.9 °C 34097 hPa WSW 6 km/h 6 km/h 83 % 0 mm
22:45 -14.4 °C -15.9 °C 34097 hPa NW 3.1 km/h 3.1 km/h 83 % 0 mm
22:50 -14.4 °C -15.9 °C 34097 hPa Calm     83 % 0 mm
22:55 -14.5 °C -16 °C 34097 hPa ESE 6.3 km/h 6.3 km/h 83 % 0 mm
22:59 -14.6 °C -16.1 °C 34097 hPa ESE 11.9 km/h 11.9 km/h 83 % 0 mm
23:04 -14.6 °C -16.1 °C 34097 hPa Calm     83 % 0 mm
23:05 -16.3 °C -17.7 °C 34130.9 hPa WSW 5.1 km/h 7.7 km/h 84 % 0 mm
23:09 -14.6 °C -16.1 °C 34097 hPa Calm     83 % 0 mm
23:12 -14.7 °C -16.1 °C 34097 hPa ENE 6 km/h 6 km/h 84 % 0 mm
23:22 -14.8 °C -16.2 °C 34097 hPa Calm     84 % 0 mm
23:25 -16.1 °C -17.4 °C 34130.9 hPa West 5.1 km/h 5.1 km/h 85 % 0 mm
23:27 -14.8 °C -16.2 °C 34097 hPa NNW 3.1 km/h   84 % 0 mm
23:32 -14.9 °C -16.3 °C 34097 hPa Calm     84 % 0 mm
23:35 -16.1 °C -17.3 °C 34130.9 hPa West 5.1 km/h 5.1 km/h 85 % 0 mm
23:37 -14.9 °C -16.3 °C 34097 hPa Calm     84 % 0 mm
23:43 -14.9 °C -16.3 °C 34097 hPa Calm     84 % 0 mm
23:45 -16.3 °C -17.6 °C 34130.9 hPa WSW 5.1 km/h 5.1 km/h 85 % 0 mm
23:47 -15 °C -16.4 °C 34097 hPa Calm     84 % 0 mm
23:48 -15 °C -16.4 °C 34097 hPa Calm     84 % 0 mm
23:53 -15 °C -16.4 °C 34097 hPa Calm     84 % 0 mm
23:55 -16.1 °C -17.4 °C 34130.9 hPa SW 5.1 km/h 10.3 km/h 85 % 0 mm
23:58 -15 °C -16.4 °C 34097 hPa Calm     84 % 0 mm
Meteo Sesrovires
Elogis d' Weather Underground - 1.75 mb

Guio original per  Jim McMurry - jmcmurry@mwt.net Adaptat per a la plantilla per  Wim van der Kuil - Leuven-Template.eu

Trobareu la nostra informacio del temps tambe a:

Weather Underground

AWEKAS